sensor_id;sensor_type;location;lat;lon;timestamp;P1;durP1;ratioP1;P2;durP2;ratioP2
1004;SDS011;491;53.480;10.174;2022-12-26T00:00:47;9.03;;;3.97;;
1004;SDS011;491;53.480;10.174;2022-12-26T00:03:13;10.70;;;4.57;;
1004;SDS011;491;53.480;10.174;2022-12-26T00:05:39;15.90;;;4.97;;
1004;SDS011;491;53.480;10.174;2022-12-26T00:08:05;8.53;;;4.10;;
1004;SDS011;491;53.480;10.174;2022-12-26T00:10:31;9.63;;;4.17;;
1004;SDS011;491;53.480;10.174;2022-12-26T00:12:58;6.80;;;3.27;;
1004;SDS011;491;53.480;10.174;2022-12-26T00:15:23;7.53;;;2.83;;
1004;SDS011;491;53.480;10.174;2022-12-26T00:17:49;6.40;;;3.40;;
1004;SDS011;491;53.480;10.174;2022-12-26T00:20:15;9.07;;;3.93;;
1004;SDS011;491;53.480;10.174;2022-12-26T00:22:41;9.40;;;3.17;;
1004;SDS011;491;53.480;10.174;2022-12-26T00:25:07;8.80;;;3.47;;
1004;SDS011;491;53.480;10.174;2022-12-26T00:27:33;9.50;;;3.10;;
1004;SDS011;491;53.480;10.174;2022-12-26T00:29:59;13.13;;;4.83;;
1004;SDS011;491;53.480;10.174;2022-12-26T00:32:25;8.93;;;5.13;;
1004;SDS011;491;53.480;10.174;2022-12-26T00:34:51;10.63;;;5.17;;
1004;SDS011;491;53.480;10.174;2022-12-26T00:37:17;14.27;;;6.53;;
1004;SDS011;491;53.480;10.174;2022-12-26T00:39:43;9.27;;;4.07;;
1004;SDS011;491;53.480;10.174;2022-12-26T00:42:09;18.30;;;4.83;;
1004;SDS011;491;53.480;10.174;2022-12-26T00:44:35;12.50;;;4.43;;
1004;SDS011;491;53.480;10.174;2022-12-26T00:47:00;11.77;;;5.67;;
1004;SDS011;491;53.480;10.174;2022-12-26T00:49:26;9.90;;;4.30;;
1004;SDS011;491;53.480;10.174;2022-12-26T00:51:52;8.83;;;4.40;;
1004;SDS011;491;53.480;10.174;2022-12-26T00:54:18;11.63;;;4.67;;
1004;SDS011;491;53.480;10.174;2022-12-26T00:56:44;10.63;;;4.20;;
1004;SDS011;491;53.480;10.174;2022-12-26T00:59:10;7.97;;;3.80;;
1004;SDS011;491;53.480;10.174;2022-12-26T01:01:36;9.87;;;3.50;;
1004;SDS011;491;53.480;10.174;2022-12-26T01:04:02;8.23;;;3.23;;
1004;SDS011;491;53.480;10.174;2022-12-26T01:06:28;12.47;;;4.47;;
1004;SDS011;491;53.480;10.174;2022-12-26T01:08:54;10.40;;;4.20;;
1004;SDS011;491;53.480;10.174;2022-12-26T01:11:20;12.27;;;5.03;;
1004;SDS011;491;53.480;10.174;2022-12-26T01:14:09;8.13;;;4.43;;
1004;SDS011;491;53.480;10.174;2022-12-26T01:16:35;9.50;;;5.10;;
1004;SDS011;491;53.480;10.174;2022-12-26T01:19:01;10.63;;;5.00;;
1004;SDS011;491;53.480;10.174;2022-12-26T01:21:27;9.73;;;4.33;;
1004;SDS011;491;53.480;10.174;2022-12-26T01:23:53;11.77;;;4.37;;
1004;SDS011;491;53.480;10.174;2022-12-26T01:26:19;13.83;;;5.60;;
1004;SDS011;491;53.480;10.174;2022-12-26T01:28:48;9.20;;;4.17;;
1004;SDS011;491;53.480;10.174;2022-12-26T01:31:15;15.17;;;5.47;;
1004;SDS011;491;53.480;10.174;2022-12-26T01:33:41;9.77;;;3.73;;
1004;SDS011;491;53.480;10.174;2022-12-26T01:36:07;14.07;;;5.30;;
1004;SDS011;491;53.480;10.174;2022-12-26T01:38:33;18.77;;;4.53;;
1004;SDS011;491;53.480;10.174;2022-12-26T01:40:59;13.67;;;5.53;;
1004;SDS011;491;53.480;10.174;2022-12-26T01:43:56;17.47;;;5.97;;
1004;SDS011;491;53.480;10.174;2022-12-26T01:49:05;10.60;;;4.00;;
1004;SDS011;491;53.480;10.174;2022-12-26T01:51:32;13.33;;;4.27;;
1004;SDS011;491;53.480;10.174;2022-12-26T01:54:01;9.50;;;4.00;;
1004;SDS011;491;53.480;10.174;2022-12-26T01:56:30;11.60;;;5.27;;
1004;SDS011;491;53.480;10.174;2022-12-26T01:59:02;17.60;;;4.93;;
1004;SDS011;491;53.480;10.174;2022-12-26T02:01:30;13.30;;;5.60;;
1004;SDS011;491;53.480;10.174;2022-12-26T02:03:58;12.73;;;4.70;;
1004;SDS011;491;53.480;10.174;2022-12-26T02:06:43;14.37;;;4.70;;
1004;SDS011;491;53.480;10.174;2022-12-26T02:09:09;13.17;;;4.53;;
1004;SDS011;491;53.480;10.174;2022-12-26T02:11:36;16.30;;;5.77;;
1004;SDS011;491;53.480;10.174;2022-12-26T02:14:06;13.93;;;5.17;;
1004;SDS011;491;53.480;10.174;2022-12-26T02:16:33;13.00;;;4.37;;
1004;SDS011;491;53.480;10.174;2022-12-26T02:18:59;11.90;;;5.17;;
1004;SDS011;491;53.480;10.174;2022-12-26T02:26:57;15.53;;;5.07;;
1004;SDS011;491;53.480;10.174;2022-12-26T02:37:19;14.33;;;4.60;;
1004;SDS011;491;53.480;10.174;2022-12-26T02:40:07;14.37;;;3.43;;
1004;SDS011;491;53.480;10.174;2022-12-26T02:51:19;10.50;;;3.40;;
1004;SDS011;491;53.480;10.174;2022-12-26T02:56:45;7.00;;;3.53;;
1004;SDS011;491;53.480;10.174;2022-12-26T02:59:47;11.80;;;4.27;;
1004;SDS011;491;53.480;10.174;2022-12-26T03:02:36;18.03;;;3.80;;
1004;SDS011;491;53.480;10.174;2022-12-26T03:05:24;7.77;;;2.57;;
1004;SDS011;491;53.480;10.174;2022-12-26T03:08:11;7.60;;;3.60;;
1004;SDS011;491;53.480;10.174;2022-12-26T03:11:01;10.10;;;2.97;;
1004;SDS011;491;53.480;10.174;2022-12-26T03:13:45;9.50;;;3.90;;
1004;SDS011;491;53.480;10.174;2022-12-26T03:16:12;8.90;;;3.73;;
1004;SDS011;491;53.480;10.174;2022-12-26T03:18:58;7.33;;;3.67;;
1004;SDS011;491;53.480;10.174;2022-12-26T03:21:26;9.30;;;3.40;;
1004;SDS011;491;53.480;10.174;2022-12-26T03:23:53;9.30;;;2.63;;
1004;SDS011;491;53.480;10.174;2022-12-26T03:26:31;8.60;;;3.37;;
1004;SDS011;491;53.480;10.174;2022-12-26T03:29:04;7.63;;;2.63;;
1004;SDS011;491;53.480;10.174;2022-12-26T03:31:49;7.20;;;2.33;;
1004;SDS011;491;53.480;10.174;2022-12-26T03:34:15;11.30;;;3.40;;
1004;SDS011;491;53.480;10.174;2022-12-26T03:45:56;14.70;;;3.57;;
1004;SDS011;491;53.480;10.174;2022-12-26T03:48:59;10.30;;;3.33;;
1004;SDS011;491;53.480;10.174;2022-12-26T03:52:04;13.87;;;3.77;;
1004;SDS011;491;53.480;10.174;2022-12-26T03:55:01;18.83;;;4.10;;
1004;SDS011;491;53.480;10.174;2022-12-26T03:58:03;7.40;;;2.60;;
1004;SDS011;491;53.480;10.174;2022-12-26T04:00:49;20.87;;;3.37;;
1004;SDS011;491;53.480;10.174;2022-12-26T04:03:35;15.93;;;3.73;;
1004;SDS011;491;53.480;10.174;2022-12-26T04:06:25;11.40;;;3.77;;
1004;SDS011;491;53.480;10.174;2022-12-26T04:09:12;13.43;;;4.03;;
1004;SDS011;491;53.480;10.174;2022-12-26T04:11:58;8.37;;;4.20;;
1004;SDS011;491;53.480;10.174;2022-12-26T04:14:51;9.67;;;3.30;;
1004;SDS011;491;53.480;10.174;2022-12-26T04:17:40;9.90;;;3.67;;
1004;SDS011;491;53.480;10.174;2022-12-26T04:23:02;7.90;;;3.60;;
1004;SDS011;491;53.480;10.174;2022-12-26T04:25:58;11.17;;;5.27;;
1004;SDS011;491;53.480;10.174;2022-12-26T04:28:45;8.20;;;3.97;;
1004;SDS011;491;53.480;10.174;2022-12-26T04:31:32;10.70;;;4.57;;
1004;SDS011;491;53.480;10.174;2022-12-26T04:34:19;13.53;;;5.50;;
1004;SDS011;491;53.480;10.174;2022-12-26T04:37:06;13.80;;;5.17;;
1004;SDS011;491;53.480;10.174;2022-12-26T04:39:53;12.40;;;4.77;;
1004;SDS011;491;53.480;10.174;2022-12-26T04:42:38;11.87;;;5.10;;
1004;SDS011;491;53.480;10.174;2022-12-26T04:45:24;13.43;;;6.00;;
1004;SDS011;491;53.480;10.174;2022-12-26T04:47:50;14.40;;;5.87;;
1004;SDS011;491;53.480;10.174;2022-12-26T04:50:35;13.37;;;6.30;;
1004;SDS011;491;53.480;10.174;2022-12-26T04:53:01;11.03;;;5.87;;
1004;SDS011;491;53.480;10.174;2022-12-26T04:55:28;11.73;;;5.13;;
1004;SDS011;491;53.480;10.174;2022-12-26T04:57:54;16.97;;;5.90;;
1004;SDS011;491;53.480;10.174;2022-12-26T05:00:21;11.13;;;5.73;;
1004;SDS011;491;53.480;10.174;2022-12-26T05:02:48;9.73;;;4.90;;
1004;SDS011;491;53.480;10.174;2022-12-26T05:05:35;9.60;;;4.97;;
1004;SDS011;491;53.480;10.174;2022-12-26T05:08:23;9.30;;;3.90;;
1004;SDS011;491;53.480;10.174;2022-12-26T05:11:08;10.70;;;4.50;;
1004;SDS011;491;53.480;10.174;2022-12-26T05:13:34;10.33;;;4.67;;
1004;SDS011;491;53.480;10.174;2022-12-26T05:16:00;12.37;;;4.93;;
1004;SDS011;491;53.480;10.174;2022-12-26T05:18:44;11.97;;;3.90;;
1004;SDS011;491;53.480;10.174;2022-12-26T05:21:29;9.57;;;4.30;;
1004;SDS011;491;53.480;10.174;2022-12-26T05:24:14;14.53;;;4.90;;
1004;SDS011;491;53.480;10.174;2022-12-26T05:26:58;9.50;;;4.33;;
1004;SDS011;491;53.480;10.174;2022-12-26T05:29:43;11.27;;;4.30;;
1004;SDS011;491;53.480;10.174;2022-12-26T05:32:09;9.00;;;4.20;;
1004;SDS011;491;53.480;10.174;2022-12-26T05:34:35;12.17;;;4.93;;
1004;SDS011;491;53.480;10.174;2022-12-26T05:37:03;12.07;;;3.70;;
1004;SDS011;491;53.480;10.174;2022-12-26T05:39:29;8.43;;;5.30;;
1004;SDS011;491;53.480;10.174;2022-12-26T05:41:55;9.63;;;6.20;;
1004;SDS011;491;53.480;10.174;2022-12-26T05:44:21;6.77;;;4.83;;
1004;SDS011;491;53.480;10.174;2022-12-26T05:46:47;11.53;;;5.70;;
1004;SDS011;491;53.480;10.174;2022-12-26T05:49:13;10.23;;;4.63;;
1004;SDS011;491;53.480;10.174;2022-12-26T05:51:39;11.90;;;4.93;;
1004;SDS011;491;53.480;10.174;2022-12-26T05:54:05;13.10;;;6.53;;
1004;SDS011;491;53.480;10.174;2022-12-26T05:56:31;11.67;;;5.70;;
1004;SDS011;491;53.480;10.174;2022-12-26T05:58:58;11.87;;;5.33;;
1004;SDS011;491;53.480;10.174;2022-12-26T06:01:25;8.13;;;4.00;;
1004;SDS011;491;53.480;10.174;2022-12-26T06:03:52;9.53;;;5.83;;
1004;SDS011;491;53.480;10.174;2022-12-26T06:06:18;10.37;;;4.20;;
1004;SDS011;491;53.480;10.174;2022-12-26T06:08:51;9.30;;;3.30;;
1004;SDS011;491;53.480;10.174;2022-12-26T06:11:17;8.50;;;4.13;;
1004;SDS011;491;53.480;10.174;2022-12-26T06:13:44;7.47;;;3.90;;
1004;SDS011;491;53.480;10.174;2022-12-26T06:16:11;9.40;;;3.70;;
1004;SDS011;491;53.480;10.174;2022-12-26T06:18:40;7.07;;;3.80;;
1004;SDS011;491;53.480;10.174;2022-12-26T06:21:10;7.53;;;3.97;;
1004;SDS011;491;53.480;10.174;2022-12-26T06:23:36;6.30;;;2.40;;
1004;SDS011;491;53.480;10.174;2022-12-26T06:26:03;9.27;;;4.70;;
1004;SDS011;491;53.480;10.174;2022-12-26T06:28:29;8.67;;;4.00;;
1004;SDS011;491;53.480;10.174;2022-12-26T06:31:05;10.90;;;4.07;;
1004;SDS011;491;53.480;10.174;2022-12-26T06:33:34;5.87;;;3.03;;
1004;SDS011;491;53.480;10.174;2022-12-26T06:36:04;4.90;;;2.87;;
1004;SDS011;491;53.480;10.174;2022-12-26T06:38:34;7.17;;;4.20;;
1004;SDS011;491;53.480;10.174;2022-12-26T06:41:03;6.20;;;2.63;;
1004;SDS011;491;53.480;10.174;2022-12-26T06:43:36;10.77;;;3.40;;
1004;SDS011;491;53.480;10.174;2022-12-26T06:46:03;8.50;;;4.00;;
1004;SDS011;491;53.480;10.174;2022-12-26T06:48:29;7.00;;;3.30;;
1004;SDS011;491;53.480;10.174;2022-12-26T06:51:14;4.03;;;2.20;;
1004;SDS011;491;53.480;10.174;2022-12-26T06:53:41;6.73;;;3.50;;
1004;SDS011;491;53.480;10.174;2022-12-26T06:56:07;8.43;;;3.37;;
1004;SDS011;491;53.480;10.174;2022-12-26T06:58:34;8.97;;;3.87;;
1004;SDS011;491;53.480;10.174;2022-12-26T07:01:21;7.10;;;3.80;;
1004;SDS011;491;53.480;10.174;2022-12-26T07:03:50;7.47;;;2.53;;
1004;SDS011;491;53.480;10.174;2022-12-26T07:06:23;7.17;;;3.40;;
1004;SDS011;491;53.480;10.174;2022-12-26T07:08:51;8.47;;;3.27;;
1004;SDS011;491;53.480;10.174;2022-12-26T07:11:18;7.43;;;3.60;;
1004;SDS011;491;53.480;10.174;2022-12-26T07:13:44;8.10;;;5.00;;
1004;SDS011;491;53.480;10.174;2022-12-26T07:16:10;6.90;;;2.63;;
1004;SDS011;491;53.480;10.174;2022-12-26T07:18:36;7.20;;;3.67;;
1004;SDS011;491;53.480;10.174;2022-12-26T07:21:03;7.33;;;3.83;;
1004;SDS011;491;53.480;10.174;2022-12-26T07:23:30;7.63;;;2.80;;
1004;SDS011;491;53.480;10.174;2022-12-26T07:25:59;6.10;;;2.93;;
1004;SDS011;491;53.480;10.174;2022-12-26T07:28:28;8.00;;;3.67;;
1004;SDS011;491;53.480;10.174;2022-12-26T07:30:57;6.30;;;3.47;;
1004;SDS011;491;53.480;10.174;2022-12-26T07:33:29;5.63;;;3.63;;
1004;SDS011;491;53.480;10.174;2022-12-26T07:36:02;6.10;;;4.00;;
1004;SDS011;491;53.480;10.174;2022-12-26T07:38:28;6.67;;;3.70;;
1004;SDS011;491;53.480;10.174;2022-12-26T07:40:54;7.93;;;3.57;;
1004;SDS011;491;53.480;10.174;2022-12-26T07:43:21;8.50;;;4.83;;
1004;SDS011;491;53.480;10.174;2022-12-26T07:45:49;9.13;;;3.77;;
1004;SDS011;491;53.480;10.174;2022-12-26T07:48:15;14.57;;;7.07;;
1004;SDS011;491;53.480;10.174;2022-12-26T07:50:41;10.77;;;6.27;;
1004;SDS011;491;53.480;10.174;2022-12-26T07:53:11;11.83;;;6.30;;
1004;SDS011;491;53.480;10.174;2022-12-26T07:55:37;12.63;;;6.63;;
1004;SDS011;491;53.480;10.174;2022-12-26T07:58:03;17.30;;;8.10;;
1004;SDS011;491;53.480;10.174;2022-12-26T08:00:29;14.00;;;8.03;;
1004;SDS011;491;53.480;10.174;2022-12-26T08:02:57;19.43;;;8.90;;
1004;SDS011;491;53.480;10.174;2022-12-26T08:05:23;16.63;;;8.37;;
1004;SDS011;491;53.480;10.174;2022-12-26T08:07:49;16.03;;;8.37;;
1004;SDS011;491;53.480;10.174;2022-12-26T08:10:15;14.97;;;9.17;;
1004;SDS011;491;53.480;10.174;2022-12-26T08:12:42;15.73;;;8.70;;
1004;SDS011;491;53.480;10.174;2022-12-26T08:15:08;18.50;;;9.30;;
1004;SDS011;491;53.480;10.174;2022-12-26T08:17:36;12.90;;;8.67;;
1004;SDS011;491;53.480;10.174;2022-12-26T08:20:02;14.63;;;8.80;;
1004;SDS011;491;53.480;10.174;2022-12-26T08:22:28;16.27;;;8.70;;
1004;SDS011;491;53.480;10.174;2022-12-26T08:24:54;14.77;;;8.93;;
1004;SDS011;491;53.480;10.174;2022-12-26T08:27:20;14.00;;;8.03;;
1004;SDS011;491;53.480;10.174;2022-12-26T08:29:46;17.50;;;8.97;;
1004;SDS011;491;53.480;10.174;2022-12-26T08:32:12;14.97;;;8.23;;
1004;SDS011;491;53.480;10.174;2022-12-26T08:34:38;17.43;;;9.00;;
1004;SDS011;491;53.480;10.174;2022-12-26T08:37:05;16.53;;;9.77;;
1004;SDS011;491;53.480;10.174;2022-12-26T08:39:31;15.97;;;8.80;;
1004;SDS011;491;53.480;10.174;2022-12-26T08:41:57;18.97;;;9.80;;
1004;SDS011;491;53.480;10.174;2022-12-26T08:44:23;17.53;;;10.20;;
1004;SDS011;491;53.480;10.174;2022-12-26T08:46:52;15.50;;;10.70;;
1004;SDS011;491;53.480;10.174;2022-12-26T08:49:18;21.73;;;11.63;;
1004;SDS011;491;53.480;10.174;2022-12-26T08:51:46;19.50;;;10.63;;
1004;SDS011;491;53.480;10.174;2022-12-26T08:54:12;16.17;;;8.57;;
1004;SDS011;491;53.480;10.174;2022-12-26T08:56:38;19.27;;;10.90;;
1004;SDS011;491;53.480;10.174;2022-12-26T08:59:04;19.07;;;10.67;;
1004;SDS011;491;53.480;10.174;2022-12-26T09:01:31;12.47;;;7.93;;
1004;SDS011;491;53.480;10.174;2022-12-26T09:04:06;18.60;;;9.93;;
1004;SDS011;491;53.480;10.174;2022-12-26T09:06:32;19.60;;;11.63;;
1004;SDS011;491;53.480;10.174;2022-12-26T09:08:59;15.00;;;9.77;;
1004;SDS011;491;53.480;10.174;2022-12-26T09:11:25;15.53;;;9.60;;
1004;SDS011;491;53.480;10.174;2022-12-26T09:13:52;21.87;;;9.63;;
1004;SDS011;491;53.480;10.174;2022-12-26T09:16:19;18.83;;;10.90;;
1004;SDS011;491;53.480;10.174;2022-12-26T09:18:45;19.50;;;9.90;;
1004;SDS011;491;53.480;10.174;2022-12-26T09:21:13;17.13;;;10.10;;
1004;SDS011;491;53.480;10.174;2022-12-26T09:23:42;17.63;;;8.90;;
1004;SDS011;491;53.480;10.174;2022-12-26T09:26:09;17.20;;;9.00;;
1004;SDS011;491;53.480;10.174;2022-12-26T09:28:35;20.30;;;10.33;;
1004;SDS011;491;53.480;10.174;2022-12-26T09:31:02;15.70;;;9.03;;
1004;SDS011;491;53.480;10.174;2022-12-26T09:33:29;20.30;;;10.63;;
1004;SDS011;491;53.480;10.174;2022-12-26T09:35:57;17.60;;;9.60;;
1004;SDS011;491;53.480;10.174;2022-12-26T09:38:26;16.40;;;9.33;;
1004;SDS011;491;53.480;10.174;2022-12-26T09:43:25;13.23;;;7.23;;
1004;SDS011;491;53.480;10.174;2022-12-26T09:45:57;18.33;;;9.43;;
1004;SDS011;491;53.480;10.174;2022-12-26T09:48:33;17.50;;;7.53;;
1004;SDS011;491;53.480;10.174;2022-12-26T09:50:59;20.43;;;8.47;;
1004;SDS011;491;53.480;10.174;2022-12-26T09:53:29;17.97;;;7.90;;
1004;SDS011;491;53.480;10.174;2022-12-26T09:55:58;17.90;;;9.97;;
1004;SDS011;491;53.480;10.174;2022-12-26T10:01:37;20.80;;;9.60;;
1004;SDS011;491;53.480;10.174;2022-12-26T10:03:48;18.43;;;8.00;;
1004;SDS011;491;53.480;10.174;2022-12-26T10:14:20;15.23;;;8.93;;
1004;SDS011;491;53.480;10.174;2022-12-26T10:17:02;19.03;;;9.00;;
1004;SDS011;491;53.480;10.174;2022-12-26T10:22:24;20.00;;;10.30;;
1004;SDS011;491;53.480;10.174;2022-12-26T10:24:52;17.37;;;9.80;;
1004;SDS011;491;53.480;10.174;2022-12-26T10:27:19;20.13;;;10.17;;
1004;SDS011;491;53.480;10.174;2022-12-26T10:30:04;19.47;;;9.90;;
1004;SDS011;491;53.480;10.174;2022-12-26T10:32:32;14.30;;;8.37;;
1004;SDS011;491;53.480;10.174;2022-12-26T10:35:01;13.60;;;7.87;;
1004;SDS011;491;53.480;10.174;2022-12-26T10:37:36;14.70;;;9.20;;
1004;SDS011;491;53.480;10.174;2022-12-26T10:40:13;14.90;;;8.60;;
1004;SDS011;491;53.480;10.174;2022-12-26T10:42:42;17.23;;;8.57;;
1004;SDS011;491;53.480;10.174;2022-12-26T10:45:19;19.70;;;9.07;;
1004;SDS011;491;53.480;10.174;2022-12-26T10:47:47;13.50;;;7.50;;
1004;SDS011;491;53.480;10.174;2022-12-26T10:50:17;15.93;;;7.47;;
1004;SDS011;491;53.480;10.174;2022-12-26T10:52:44;13.17;;;6.27;;
1004;SDS011;491;53.480;10.174;2022-12-26T10:55:15;13.83;;;7.77;;
1004;SDS011;491;53.480;10.174;2022-12-26T10:57:41;16.77;;;7.50;;
1004;SDS011;491;53.480;10.174;2022-12-26T11:00:13;15.00;;;9.80;;
1004;SDS011;491;53.480;10.174;2022-12-26T11:02:40;19.10;;;9.00;;
1004;SDS011;491;53.480;10.174;2022-12-26T11:07:37;18.00;;;7.90;;
1004;SDS011;491;53.480;10.174;2022-12-26T11:10:04;13.23;;;6.27;;
1004;SDS011;491;53.480;10.174;2022-12-26T11:12:36;13.73;;;7.30;;
1004;SDS011;491;53.480;10.174;2022-12-26T11:15:05;16.63;;;8.33;;
1004;SDS011;491;53.480;10.174;2022-12-26T11:17:37;17.27;;;7.13;;
1004;SDS011;491;53.480;10.174;2022-12-26T11:20:24;15.80;;;7.20;;
1004;SDS011;491;53.480;10.174;2022-12-26T11:22:52;13.57;;;7.53;;
1004;SDS011;491;53.480;10.174;2022-12-26T11:25:19;14.80;;;6.60;;
1004;SDS011;491;53.480;10.174;2022-12-26T11:27:47;14.57;;;5.10;;
1004;SDS011;491;53.480;10.174;2022-12-26T11:32:43;9.63;;;6.63;;
1004;SDS011;491;53.480;10.174;2022-12-26T11:35:17;14.10;;;7.50;;
1004;SDS011;491;53.480;10.174;2022-12-26T11:37:50;12.20;;;6.43;;
1004;SDS011;491;53.480;10.174;2022-12-26T11:40:38;11.97;;;6.83;;
1004;SDS011;491;53.480;10.174;2022-12-26T11:43:04;14.70;;;6.50;;
1004;SDS011;491;53.480;10.174;2022-12-26T11:45:31;16.20;;;7.00;;
1004;SDS011;491;53.480;10.174;2022-12-26T11:48:00;11.03;;;6.50;;
1004;SDS011;491;53.480;10.174;2022-12-26T11:50:27;11.00;;;5.00;;
1004;SDS011;491;53.480;10.174;2022-12-26T11:57:56;8.27;;;4.50;;
1004;SDS011;491;53.480;10.174;2022-12-26T12:00:22;7.80;;;4.27;;
1004;SDS011;491;53.480;10.174;2022-12-26T12:02:48;11.97;;;5.50;;
1004;SDS011;491;53.480;10.174;2022-12-26T12:05:21;11.10;;;5.37;;
1004;SDS011;491;53.480;10.174;2022-12-26T12:07:54;7.00;;;4.87;;
1004;SDS011;491;53.480;10.174;2022-12-26T12:10:33;11.03;;;5.90;;
1004;SDS011;491;53.480;10.174;2022-12-26T12:16:03;8.90;;;7.97;;
1004;SDS011;491;53.480;10.174;2022-12-26T12:18:42;8.37;;;4.40;;
1004;SDS011;491;53.480;10.174;2022-12-26T12:26:45;10.23;;;4.80;;
1004;SDS011;491;53.480;10.174;2022-12-26T12:31:51;9.57;;;4.80;;
1004;SDS011;491;53.480;10.174;2022-12-26T12:34:22;9.47;;;4.43;;
1004;SDS011;491;53.480;10.174;2022-12-26T12:36:53;7.60;;;4.43;;
1004;SDS011;491;53.480;10.174;2022-12-26T12:39:44;7.07;;;4.47;;
1004;SDS011;491;53.480;10.174;2022-12-26T12:44:56;6.20;;;3.57;;
1004;SDS011;491;53.480;10.174;2022-12-26T12:52:50;6.63;;;4.03;;
1004;SDS011;491;53.480;10.174;2022-12-26T12:55:49;10.77;;;4.87;;
1004;SDS011;491;53.480;10.174;2022-12-26T12:58:19;7.53;;;3.00;;
1004;SDS011;491;53.480;10.174;2022-12-26T13:00:51;4.50;;;2.23;;
1004;SDS011;491;53.480;10.174;2022-12-26T13:03:26;10.50;;;3.63;;
1004;SDS011;491;53.480;10.174;2022-12-26T13:05:58;6.90;;;3.60;;
1004;SDS011;491;53.480;10.174;2022-12-26T13:08:30;5.20;;;2.60;;
1004;SDS011;491;53.480;10.174;2022-12-26T13:11:03;5.97;;;2.63;;
1004;SDS011;491;53.480;10.174;2022-12-26T13:13:36;4.70;;;2.47;;
1004;SDS011;491;53.480;10.174;2022-12-26T13:16:13;4.30;;;2.57;;
1004;SDS011;491;53.480;10.174;2022-12-26T13:18:43;5.47;;;3.60;;
1004;SDS011;491;53.480;10.174;2022-12-26T13:21:12;6.77;;;3.50;;
1004;SDS011;491;53.480;10.174;2022-12-26T13:26:31;4.73;;;2.90;;
1004;SDS011;491;53.480;10.174;2022-12-26T13:29:01;3.70;;;2.40;;
1004;SDS011;491;53.480;10.174;2022-12-26T13:31:30;6.23;;;1.83;;
1004;SDS011;491;53.480;10.174;2022-12-26T13:33:57;3.00;;;1.03;;
1004;SDS011;491;53.480;10.174;2022-12-26T13:36:33;4.23;;;1.83;;
1004;SDS011;491;53.480;10.174;2022-12-26T13:41:25;3.60;;;1.47;;
1004;SDS011;491;53.480;10.174;2022-12-26T13:51:57;2.53;;;0.53;;
1004;SDS011;491;53.480;10.174;2022-12-26T13:54:24;2.83;;;0.63;;
1004;SDS011;491;53.480;10.174;2022-12-26T13:59:26;2.10;;;0.30;;
1004;SDS011;491;53.480;10.174;2022-12-26T14:09:47;1.83;;;0.27;;
1004;SDS011;491;53.480;10.174;2022-12-26T14:12:23;3.53;;;0.30;;
1004;SDS011;491;53.480;10.174;2022-12-26T14:14:56;1.67;;;0.20;;
1004;SDS011;491;53.480;10.174;2022-12-26T14:20:18;4.60;;;0.30;;
1004;SDS011;491;53.480;10.174;2022-12-26T14:25:31;3.27;;;0.20;;
1004;SDS011;491;53.480;10.174;2022-12-26T14:28:02;0.40;;;0.20;;
1004;SDS011;491;53.480;10.174;2022-12-26T14:30:34;0.70;;;0.20;;
1004;SDS011;491;53.480;10.174;2022-12-26T14:35:44;1.80;;;0.77;;
1004;SDS011;491;53.480;10.174;2022-12-26T14:38:29;2.07;;;0.73;;
1004;SDS011;491;53.480;10.174;2022-12-26T14:40:58;2.00;;;0.37;;
1004;SDS011;491;53.480;10.174;2022-12-26T14:43:32;5.10;;;0.30;;
1004;SDS011;491;53.480;10.174;2022-12-26T14:45:59;1.03;;;0.20;;
1004;SDS011;491;53.480;10.174;2022-12-26T14:53:32;5.30;;;0.53;;
1004;SDS011;491;53.480;10.174;2022-12-26T15:01:41;1.33;;;0.30;;
1004;SDS011;491;53.480;10.174;2022-12-26T15:03:58;2.40;;;0.50;;
1004;SDS011;491;53.480;10.174;2022-12-26T15:16:54;8.00;;;0.50;;
1004;SDS011;491;53.480;10.174;2022-12-26T15:32:48;1.97;;;0.20;;
1004;SDS011;491;53.480;10.174;2022-12-26T15:35:20;7.10;;;0.30;;
1004;SDS011;491;53.480;10.174;2022-12-26T15:37:53;1.63;;;0.30;;
1004;SDS011;491;53.480;10.174;2022-12-26T15:51:12;6.00;;;0.77;;
1004;SDS011;491;53.480;10.174;2022-12-26T15:56:43;6.60;;;1.13;;
1004;SDS011;491;53.480;10.174;2022-12-26T16:01:58;2.30;;;0.47;;
1004;SDS011;491;53.480;10.174;2022-12-26T16:04:38;4.77;;;0.50;;
1004;SDS011;491;53.480;10.174;2022-12-26T16:07:15;5.03;;;0.20;;
1004;SDS011;491;53.480;10.174;2022-12-26T16:09:51;3.37;;;0.63;;
1004;SDS011;491;53.480;10.174;2022-12-26T16:12:20;1.43;;;0.33;;
1004;SDS011;491;53.480;10.174;2022-12-26T16:14:46;5.07;;;0.77;;
1004;SDS011;491;53.480;10.174;2022-12-26T16:19:38;4.33;;;0.70;;
1004;SDS011;491;53.480;10.174;2022-12-26T16:22:04;7.70;;;1.67;;
1004;SDS011;491;53.480;10.174;2022-12-26T16:24:50;9.13;;;1.00;;
1004;SDS011;491;53.480;10.174;2022-12-26T16:27:18;6.13;;;0.97;;
1004;SDS011;491;53.480;10.174;2022-12-26T16:29:45;3.93;;;0.80;;
1004;SDS011;491;53.480;10.174;2022-12-26T16:32:14;2.80;;;0.30;;
1004;SDS011;491;53.480;10.174;2022-12-26T16:34:40;2.67;;;0.70;;
1004;SDS011;491;53.480;10.174;2022-12-26T16:37:07;6.80;;;0.87;;
1004;SDS011;491;53.480;10.174;2022-12-26T16:39:35;4.93;;;0.90;;
1004;SDS011;491;53.480;10.174;2022-12-26T16:42:02;2.70;;;1.20;;
1004;SDS011;491;53.480;10.174;2022-12-26T16:44:36;6.10;;;0.53;;
1004;SDS011;491;53.480;10.174;2022-12-26T16:47:05;9.90;;;1.23;;
1004;SDS011;491;53.480;10.174;2022-12-26T16:49:31;8.33;;;0.60;;
1004;SDS011;491;53.480;10.174;2022-12-26T16:51:58;4.40;;;0.43;;
1004;SDS011;491;53.480;10.174;2022-12-26T16:54:37;6.40;;;1.47;;
1004;SDS011;491;53.480;10.174;2022-12-26T16:59:34;5.37;;;0.80;;
1004;SDS011;491;53.480;10.174;2022-12-26T17:02:01;4.10;;;0.67;;
1004;SDS011;491;53.480;10.174;2022-12-26T17:04:28;10.47;;;1.13;;
1004;SDS011;491;53.480;10.174;2022-12-26T17:09:21;9.10;;;1.43;;
1004;SDS011;491;53.480;10.174;2022-12-26T17:11:59;4.70;;;1.07;;
1004;SDS011;491;53.480;10.174;2022-12-26T17:14:27;4.90;;;0.93;;
1004;SDS011;491;53.480;10.174;2022-12-26T17:16:57;2.80;;;0.40;;
1004;SDS011;491;53.480;10.174;2022-12-26T17:19:25;2.37;;;0.77;;
1004;SDS011;491;53.480;10.174;2022-12-26T17:24:37;6.13;;;0.97;;
1004;SDS011;491;53.480;10.174;2022-12-26T17:27:24;7.43;;;0.83;;
1004;SDS011;491;53.480;10.174;2022-12-26T17:34:47;4.10;;;0.37;;
1004;SDS011;491;53.480;10.174;2022-12-26T17:37:16;7.17;;;1.13;;
1004;SDS011;491;53.480;10.174;2022-12-26T17:39:43;3.93;;;0.77;;
1004;SDS011;491;53.480;10.174;2022-12-26T17:42:14;8.20;;;2.03;;
1004;SDS011;491;53.480;10.174;2022-12-26T17:44:41;7.00;;;0.70;;
1004;SDS011;491;53.480;10.174;2022-12-26T17:47:12;7.20;;;0.93;;
1004;SDS011;491;53.480;10.174;2022-12-26T17:49:39;3.33;;;0.43;;
1004;SDS011;491;53.480;10.174;2022-12-26T17:52:05;9.90;;;1.13;;
1004;SDS011;491;53.480;10.174;2022-12-26T17:54:31;7.10;;;0.53;;
1004;SDS011;491;53.480;10.174;2022-12-26T17:56:57;6.43;;;0.40;;
1004;SDS011;491;53.480;10.174;2022-12-26T17:59:24;3.17;;;0.83;;
1004;SDS011;491;53.480;10.174;2022-12-26T18:01:50;5.70;;;0.67;;
1004;SDS011;491;53.480;10.174;2022-12-26T18:04:16;5.90;;;0.60;;
1004;SDS011;491;53.480;10.174;2022-12-26T18:06:42;3.90;;;0.63;;
1004;SDS011;491;53.480;10.174;2022-12-26T18:09:17;7.73;;;1.13;;
1004;SDS011;491;53.480;10.174;2022-12-26T18:11:48;3.23;;;0.60;;
1004;SDS011;491;53.480;10.174;2022-12-26T18:14:14;10.70;;;1.43;;
1004;SDS011;491;53.480;10.174;2022-12-26T18:16:40;6.30;;;1.53;;
1004;SDS011;491;53.480;10.174;2022-12-26T18:19:06;8.33;;;0.67;;
1004;SDS011;491;53.480;10.174;2022-12-26T18:21:33;3.13;;;0.77;;
1004;SDS011;491;53.480;10.174;2022-12-26T18:23:59;6.50;;;1.47;;
1004;SDS011;491;53.480;10.174;2022-12-26T18:26:26;4.60;;;2.00;;
1004;SDS011;491;53.480;10.174;2022-12-26T18:28:53;21.93;;;2.03;;
1004;SDS011;491;53.480;10.174;2022-12-26T18:31:20;3.10;;;0.30;;
1004;SDS011;491;53.480;10.174;2022-12-26T18:33:45;4.43;;;0.60;;